createdAt,value
2018-07-02T00:04:01.419Z,101616.03
2018-07-02T00:09:06.849Z,101616.91
2018-07-02T00:14:12.158Z,101610.20
2018-07-02T00:19:15.745Z,101614.70
2018-07-02T00:24:18.981Z,101608.70
2018-07-02T00:29:22.223Z,101607.80
2018-07-02T00:34:26.363Z,101622.50
2018-07-02T00:39:30.092Z,101616.11
2018-07-02T00:44:33.257Z,101604.85
2018-07-02T00:49:36.364Z,101614.47
2018-07-02T00:54:39.471Z,101604.11
2018-07-02T00:59:43.163Z,101605.75
2018-07-02T01:04:46.342Z,101597.66
2018-07-02T01:09:49.563Z,101604.31
2018-07-02T01:14:53.370Z,101603.13
2018-07-02T01:19:56.487Z,101593.39
2018-07-02T01:25:01.892Z,101595.86
2018-07-02T01:30:05.009Z,101601.80
2018-07-02T01:35:08.142Z,101600.06
2018-07-02T01:40:11.267Z,101600.03
2018-07-02T01:45:14.394Z,101597.12
2018-07-02T01:50:17.574Z,101602.28
2018-07-02T01:55:21.848Z,101603.72
2018-07-02T02:00:25.044Z,101596.48
2018-07-02T02:05:28.175Z,101606.20
2018-07-02T02:10:31.400Z,101617.19
2018-07-02T02:15:34.505Z,101612.86
2018-07-02T02:20:37.877Z,101603.24
2018-07-02T02:25:40.983Z,101592.97
2018-07-02T02:30:44.085Z,101594.48
2018-07-02T02:35:47.239Z,101586.67
2018-07-02T02:40:50.432Z,101585.16
2018-07-02T02:45:53.589Z,101584.44
2018-07-02T02:50:56.720Z,101583.36
2018-07-02T02:55:59.956Z,101585.96
2018-07-02T03:01:03.117Z,101586.69
2018-07-02T03:06:06.232Z,101586.13
2018-07-02T03:11:09.442Z,101595.05
2018-07-02T03:16:13.184Z,101598.78
2018-07-02T03:21:16.845Z,101603.91
2018-07-02T03:26:20.019Z,101590.80
2018-07-02T03:31:23.221Z,101588.86
2018-07-02T03:36:26.330Z,101573.16
2018-07-02T03:41:29.494Z,101575.33
2018-07-02T03:46:32.712Z,101569.81
2018-07-02T03:51:35.851Z,101570.16
2018-07-02T03:56:39.024Z,101567.80
2018-07-02T04:01:42.089Z,101570.09
2018-07-02T04:06:45.371Z,101568.22
2018-07-02T04:11:48.549Z,101573.20
2018-07-02T04:16:52.303Z,101568.20
2018-07-02T04:21:55.418Z,101567.03
2018-07-02T04:26:58.548Z,101561.97
2018-07-02T04:32:01.703Z,101560.19
2018-07-02T04:37:04.871Z,101561.51
2018-07-02T04:42:08.439Z,101571.79
2018-07-02T04:47:11.536Z,101570.73
2018-07-02T04:52:14.631Z,101569.70
2018-07-02T04:57:17.799Z,101573.09
2018-07-02T05:02:21.036Z,101573.09
2018-07-02T05:07:24.749Z,101572.52
2018-07-02T05:12:28.201Z,101578.61
2018-07-02T05:17:31.279Z,101585.44
2018-07-02T05:22:34.395Z,101578.84
2018-07-02T05:27:37.511Z,101581.75
2018-07-02T05:32:40.625Z,101578.23
2018-07-02T05:37:43.825Z,101579.45
2018-07-02T05:42:47.078Z,101573.88
2018-07-02T05:47:50.387Z,101575.08
2018-07-02T05:52:53.941Z,101584.25
2018-07-02T05:57:57.127Z,101584.09
2018-07-02T06:03:00.261Z,101572.92
2018-07-02T06:08:03.452Z,101575.41
2018-07-02T06:13:06.650Z,101575.28
2018-07-02T06:18:09.803Z,101576.88
2018-07-02T06:23:14.199Z,101580.17
2018-07-02T06:28:17.497Z,101569.37
2018-07-02T06:33:20.851Z,101567.72
2018-07-02T06:38:24.127Z,101568.20
2018-07-02T06:43:27.365Z,101581.56
2018-07-02T06:48:31.084Z,101572.25
2018-07-02T06:53:34.712Z,101577.08
2018-07-02T06:58:37.784Z,101574.25
2018-07-02T07:03:40.926Z,101580.59
2018-07-02T07:08:44.149Z,101579.69
2018-07-02T07:13:47.824Z,101580.89
2018-07-02T07:18:51.202Z,101578.82
2018-07-02T07:23:54.445Z,101575.78
2018-07-02T07:28:57.721Z,101584.50
2018-07-02T07:34:01.646Z,101573.65
2018-07-02T07:39:07.383Z,101573.61
2018-07-02T07:44:11.043Z,101563.05
2018-07-02T07:49:14.223Z,101562.03
2018-07-02T07:54:17.369Z,101555.44
2018-07-02T07:59:20.568Z,101551.48
2018-07-02T08:04:23.689Z,101552.53
2018-07-02T08:09:27.055Z,101551.77
2018-07-02T08:14:30.546Z,101545.03
2018-07-02T08:19:33.825Z,101537.65
2018-07-02T08:24:36.996Z,101528.69
2018-07-02T08:29:40.128Z,101529.63
2018-07-02T08:34:43.275Z,101532.70
2018-07-02T08:39:46.403Z,101526.52
2018-07-02T08:44:49.533Z,101514.80
2018-07-02T08:49:52.743Z,101508.23
2018-07-02T08:54:55.856Z,101511.84
2018-07-02T08:59:59.132Z,101500.98
2018-07-02T09:05:02.354Z,101491.50
2018-07-02T09:10:05.600Z,101489.02
2018-07-02T09:15:08.783Z,101482.00
2018-07-02T09:20:11.996Z,101468.98
2018-07-02T09:25:16.154Z,101463.99
2018-07-02T09:30:19.283Z,101472.70
2018-07-02T09:35:22.497Z,101464.84
2018-07-02T09:40:25.692Z,101467.03
2018-07-02T09:45:29.240Z,101451.78
2018-07-02T09:50:32.434Z,101458.45
2018-07-02T09:55:35.705Z,101460.44
2018-07-02T10:00:38.903Z,101452.59
2018-07-02T10:05:42.181Z,101460.73
2018-07-02T10:10:45.328Z,101465.87
2018-07-02T10:15:48.549Z,101453.53
2018-07-02T10:20:51.855Z,101450.48
2018-07-02T10:25:55.037Z,101465.69
2018-07-02T10:30:58.846Z,101458.58
2018-07-02T10:36:02.173Z,101442.19
2018-07-02T10:41:06.272Z,101447.65
2018-07-02T10:46:09.946Z,101451.80
2018-07-02T10:51:13.081Z,101443.83
2018-07-02T10:56:16.243Z,101439.11
2018-07-02T11:01:19.430Z,101431.52
2018-07-02T11:06:22.541Z,101427.84
2018-07-02T11:11:25.894Z,101426.67
2018-07-02T11:16:29.373Z,101420.48
2018-07-02T11:21:32.583Z,101420.33
2018-07-02T11:26:35.830Z,101413.16
2018-07-02T11:31:39.041Z,101404.94
2018-07-02T11:36:42.245Z,101416.27
2018-07-02T11:41:45.461Z,101408.21
2018-07-02T11:46:49.161Z,101410.14
2018-07-02T11:51:52.304Z,101403.30
2018-07-02T11:56:55.408Z,101401.73
2018-07-02T12:01:58.763Z,101397.62
2018-07-02T12:07:02.043Z,101390.16
2018-07-02T12:12:05.691Z,101396.39
2018-07-02T12:17:08.946Z,101392.66
2018-07-02T12:22:12.063Z,101381.46
2018-07-02T12:27:15.830Z,101391.73
2018-07-02T12:32:18.994Z,101380.34
2018-07-02T12:37:22.360Z,101402.27
2018-07-02T12:42:25.875Z,101397.57
2018-07-02T12:47:29.355Z,101388.36
2018-07-02T12:52:32.855Z,101376.20
2018-07-02T12:57:36.043Z,101377.44
2018-07-02T13:02:39.479Z,101370.97
2018-07-02T13:07:42.634Z,101360.70
2018-07-02T13:12:45.721Z,101355.73
2018-07-02T13:17:48.854Z,101361.33
2018-07-02T13:22:51.989Z,101349.82
2018-07-02T13:27:55.303Z,101341.14
2018-07-02T13:32:58.916Z,101342.89
2018-07-02T13:38:02.239Z,101354.05
2018-07-02T13:43:05.510Z,101352.63
2018-07-02T13:48:08.658Z,101351.97
2018-07-02T13:53:11.911Z,101337.44
2018-07-02T13:58:15.020Z,101329.64
2018-07-02T14:03:18.167Z,101322.69
2018-07-02T14:08:21.527Z,101326.11
2018-07-02T14:13:24.656Z,101300.11
2018-07-02T14:18:27.905Z,101307.13
2018-07-02T14:23:31.503Z,101297.63
2018-07-02T14:28:34.753Z,101304.47
2018-07-02T14:33:38.400Z,101309.29
2018-07-02T14:38:41.615Z,101301.02
2018-07-02T14:43:44.906Z,101302.09
2018-07-02T14:48:48.077Z,101290.70
2018-07-02T14:53:51.382Z,101289.58
2018-07-02T14:58:54.630Z,101277.33
2018-07-02T15:03:58.054Z,101273.64
2018-07-02T15:09:01.453Z,101273.11
2018-07-02T15:14:05.670Z,101267.82
2018-07-02T15:19:08.812Z,101254.11
2018-07-02T15:24:12.025Z,101255.55
2018-07-02T15:29:15.200Z,101260.59
2018-07-02T15:34:18.271Z,101256.81
2018-07-02T15:39:21.525Z,101267.09
2018-07-02T15:44:24.656Z,101261.48
2018-07-02T15:49:28.308Z,101260.14
2018-07-02T15:54:31.512Z,101270.11
2018-07-02T15:59:34.761Z,101259.85
2018-07-02T16:04:37.926Z,101256.75
2018-07-02T16:09:41.067Z,101254.31
2018-07-02T16:14:44.789Z,101249.45
2018-07-02T16:19:47.934Z,101244.22
2018-07-02T16:24:51.077Z,101241.34
2018-07-02T16:29:54.294Z,101240.19
2018-07-02T16:34:57.657Z,101240.05
2018-07-02T16:40:01.073Z,101244.58
2018-07-02T16:45:04.395Z,101236.43
2018-07-02T16:50:07.513Z,101237.44
2018-07-02T16:55:10.655Z,101242.57
2018-07-02T17:00:13.910Z,101234.67
2018-07-02T17:05:17.210Z,101232.09
2018-07-02T17:10:20.496Z,101231.38
2018-07-02T17:15:23.616Z,101233.69
2018-07-02T17:20:26.883Z,101223.80
2018-07-02T17:25:30.108Z,101224.84
2018-07-02T17:30:33.274Z,101224.44
2018-07-02T17:35:36.651Z,101227.92
2018-07-02T17:40:39.869Z,101225.12
2018-07-02T17:45:43.017Z,101221.88
2018-07-02T17:50:46.180Z,101215.79
2018-07-02T17:55:49.363Z,101216.84
2018-07-02T18:00:52.660Z,101221.62
2018-07-02T18:05:55.846Z,101216.37
2018-07-02T18:10:59.601Z,101209.45
2018-07-02T18:16:03.125Z,101209.42
2018-07-02T18:21:06.598Z,101208.61
2018-07-02T18:26:09.905Z,101199.98
2018-07-02T18:31:13.053Z,101202.84
2018-07-02T18:36:16.640Z,101201.06
2018-07-02T18:41:31.358Z,101200.06
2018-07-02T18:46:35.488Z,101210.02
2018-07-02T18:51:38.995Z,101221.08
2018-07-02T18:56:42.307Z,101210.66
2018-07-02T19:01:48.954Z,101218.16
2018-07-02T19:06:56.841Z,101211.97
2018-07-02T19:12:00.221Z,101212.56
2018-07-02T19:17:03.484Z,101223.84
2018-07-02T19:22:10.452Z,101220.29
2018-07-02T19:27:13.813Z,101219.66
2018-07-02T19:32:19.406Z,101229.50
2018-07-02T19:37:24.657Z,101240.09
2018-07-02T19:42:28.015Z,101241.55
2018-07-02T19:47:31.644Z,101244.44
2018-07-02T19:52:37.111Z,101245.53
2018-07-02T19:57:42.363Z,101253.19
2018-07-02T20:02:48.376Z,101262.88
2018-07-02T20:07:54.987Z,101264.00
2018-07-02T20:12:59.768Z,101269.10
2018-07-02T20:18:06.057Z,101271.84
2018-07-02T20:23:09.652Z,101266.73
2018-07-02T20:28:13.082Z,101266.93
2018-07-02T20:33:17.205Z,101268.51
2018-07-02T20:38:22.879Z,101271.91
2018-07-02T20:43:29.486Z,101271.27
2018-07-02T20:48:35.251Z,101268.72
2018-07-02T20:53:42.183Z,101265.23
2018-07-02T20:58:46.425Z,101265.41
2018-07-02T21:03:49.699Z,101274.21
2018-07-02T21:08:58.399Z,101278.89
2018-07-02T21:14:04.602Z,101280.67
2018-07-02T21:19:10.246Z,101285.93
2018-07-02T21:24:16.680Z,101286.89
2018-07-02T21:29:24.474Z,101287.16
2018-07-02T21:34:28.055Z,101289.98
2018-07-02T21:39:31.903Z,101288.42
2018-07-02T21:44:36.242Z,101286.48
2018-07-02T21:49:41.295Z,101284.87
2018-07-02T21:54:46.698Z,101285.42
2018-07-02T21:59:50.228Z,101284.30
2018-07-02T22:04:59.899Z,101290.52
2018-07-02T22:10:06.025Z,101293.41
2018-07-02T22:20:19.984Z,101293.31
2018-07-02T22:25:24.255Z,101287.61
2018-07-02T22:30:31.189Z,101286.78
2018-07-02T22:35:38.412Z,101286.44
2018-07-02T22:40:41.933Z,101283.77
2018-07-02T22:45:45.061Z,101288.95
2018-07-02T22:50:48.194Z,101285.77
2018-07-02T22:55:58.750Z,101293.27
2018-07-02T23:01:01.944Z,101296.91
2018-07-02T23:06:05.470Z,101298.89
2018-07-02T23:11:08.662Z,101298.02
2018-07-02T23:16:11.772Z,101301.02
2018-07-02T23:37:14.368Z,101299.70
2018-07-02T23:42:17.507Z,101301.02
2018-07-02T23:47:20.592Z,101289.55
2018-07-02T23:52:23.711Z,101293.80
2018-07-02T23:57:26.866Z,101296.26
